sensor_id;sensor_type;location;lat;lon;timestamp;P1;durP1;ratioP1;P2;durP2;ratioP2
21266;SDS011;10791;53.108;18.326;2023-05-13T00:03:12;13.87;;;9.17;;
21266;SDS011;10791;53.108;18.326;2023-05-13T00:08:15;15.13;;;9.13;;
21266;SDS011;10791;53.108;18.326;2023-05-13T00:13:18;16.60;;;8.60;;
21266;SDS011;10791;53.108;18.326;2023-05-13T00:18:21;18.83;;;8.93;;
21266;SDS011;10791;53.108;18.326;2023-05-13T00:23:24;28.60;;;10.27;;
21266;SDS011;10791;53.108;18.326;2023-05-13T00:28:28;15.20;;;9.27;;
21266;SDS011;10791;53.108;18.326;2023-05-13T00:33:30;16.63;;;8.23;;
21266;SDS011;10791;53.108;18.326;2023-05-13T00:38:33;16.30;;;9.13;;
21266;SDS011;10791;53.108;18.326;2023-05-13T00:43:37;15.23;;;9.30;;
21266;SDS011;10791;53.108;18.326;2023-05-13T00:48:42;18.43;;;9.10;;
21266;SDS011;10791;53.108;18.326;2023-05-13T00:53:45;18.07;;;9.93;;
21266;SDS011;10791;53.108;18.326;2023-05-13T00:58:49;15.30;;;10.47;;
21266;SDS011;10791;53.108;18.326;2023-05-13T01:03:55;18.50;;;10.03;;
21266;SDS011;10791;53.108;18.326;2023-05-13T01:09:22;17.63;;;9.77;;
21266;SDS011;10791;53.108;18.326;2023-05-13T01:14:48;16.97;;;10.07;;
21266;SDS011;10791;53.108;18.326;2023-05-13T01:19:56;18.73;;;10.80;;
21266;SDS011;10791;53.108;18.326;2023-05-13T01:25:02;14.47;;;9.47;;
21266;SDS011;10791;53.108;18.326;2023-05-13T01:30:05;16.73;;;9.73;;
21266;SDS011;10791;53.108;18.326;2023-05-13T01:35:10;16.43;;;10.73;;
21266;SDS011;10791;53.108;18.326;2023-05-13T01:40:13;15.30;;;9.60;;
21266;SDS011;10791;53.108;18.326;2023-05-13T01:45:32;17.30;;;9.07;;
21266;SDS011;10791;53.108;18.326;2023-05-13T01:50:36;18.50;;;9.53;;
21266;SDS011;10791;53.108;18.326;2023-05-13T01:55:39;15.00;;;9.53;;
21266;SDS011;10791;53.108;18.326;2023-05-13T02:00:42;14.27;;;10.37;;
21266;SDS011;10791;53.108;18.326;2023-05-13T02:05:47;13.37;;;9.30;;
21266;SDS011;10791;53.108;18.326;2023-05-13T02:10:58;19.83;;;9.63;;
21266;SDS011;10791;53.108;18.326;2023-05-13T02:16:02;20.53;;;10.80;;
21266;SDS011;10791;53.108;18.326;2023-05-13T02:21:08;18.13;;;10.70;;
21266;SDS011;10791;53.108;18.326;2023-05-13T02:26:12;20.20;;;11.50;;
21266;SDS011;10791;53.108;18.326;2023-05-13T02:31:16;16.20;;;10.40;;
21266;SDS011;10791;53.108;18.326;2023-05-13T02:36:20;19.10;;;11.23;;
21266;SDS011;10791;53.108;18.326;2023-05-13T02:41:23;18.83;;;10.00;;
21266;SDS011;10791;53.108;18.326;2023-05-13T02:46:26;14.50;;;10.07;;
21266;SDS011;10791;53.108;18.326;2023-05-13T02:51:30;17.50;;;10.13;;
21266;SDS011;10791;53.108;18.326;2023-05-13T02:56:34;16.23;;;10.57;;
21266;SDS011;10791;53.108;18.326;2023-05-13T03:01:41;16.30;;;9.87;;
21266;SDS011;10791;53.108;18.326;2023-05-13T03:06:45;13.50;;;9.60;;
21266;SDS011;10791;53.108;18.326;2023-05-13T03:11:49;18.50;;;9.13;;
21266;SDS011;10791;53.108;18.326;2023-05-13T03:16:53;16.67;;;9.33;;
21266;SDS011;10791;53.108;18.326;2023-05-13T03:22:00;20.03;;;10.77;;
21266;SDS011;10791;53.108;18.326;2023-05-13T03:27:03;21.80;;;9.70;;
21266;SDS011;10791;53.108;18.326;2023-05-13T03:32:07;18.10;;;9.63;;
21266;SDS011;10791;53.108;18.326;2023-05-13T03:37:10;16.30;;;10.03;;
21266;SDS011;10791;53.108;18.326;2023-05-13T03:42:13;16.10;;;9.97;;
21266;SDS011;10791;53.108;18.326;2023-05-13T03:47:17;18.03;;;10.37;;
21266;SDS011;10791;53.108;18.326;2023-05-13T03:52:20;17.13;;;10.23;;
21266;SDS011;10791;53.108;18.326;2023-05-13T03:57:23;13.47;;;9.73;;
21266;SDS011;10791;53.108;18.326;2023-05-13T04:02:26;18.83;;;10.17;;
21266;SDS011;10791;53.108;18.326;2023-05-13T04:07:30;16.77;;;10.37;;
21266;SDS011;10791;53.108;18.326;2023-05-13T04:12:34;17.70;;;10.07;;
21266;SDS011;10791;53.108;18.326;2023-05-13T04:17:38;13.47;;;9.47;;
21266;SDS011;10791;53.108;18.326;2023-05-13T04:22:42;17.13;;;9.17;;
21266;SDS011;10791;53.108;18.326;2023-05-13T04:27:45;14.90;;;9.17;;
21266;SDS011;10791;53.108;18.326;2023-05-13T04:32:51;11.97;;;8.10;;
21266;SDS011;10791;53.108;18.326;2023-05-13T04:37:54;14.27;;;9.03;;
21266;SDS011;10791;53.108;18.326;2023-05-13T04:42:57;15.43;;;8.57;;
21266;SDS011;10791;53.108;18.326;2023-05-13T04:48:00;11.90;;;7.97;;
21266;SDS011;10791;53.108;18.326;2023-05-13T04:53:04;15.73;;;8.57;;
21266;SDS011;10791;53.108;18.326;2023-05-13T04:58:07;12.90;;;8.07;;
21266;SDS011;10791;53.108;18.326;2023-05-13T05:03:10;15.00;;;9.13;;
21266;SDS011;10791;53.108;18.326;2023-05-13T05:08:13;14.40;;;9.10;;
21266;SDS011;10791;53.108;18.326;2023-05-13T05:13:17;13.07;;;8.27;;
21266;SDS011;10791;53.108;18.326;2023-05-13T05:18:20;13.33;;;8.73;;
21266;SDS011;10791;53.108;18.326;2023-05-13T05:23:23;14.07;;;9.30;;
21266;SDS011;10791;53.108;18.326;2023-05-13T05:28:26;12.57;;;8.93;;
21266;SDS011;10791;53.108;18.326;2023-05-13T05:33:30;11.80;;;9.40;;
21266;SDS011;10791;53.108;18.326;2023-05-13T05:38:34;12.53;;;9.27;;
21266;SDS011;10791;53.108;18.326;2023-05-13T05:43:38;15.53;;;9.07;;
21266;SDS011;10791;53.108;18.326;2023-05-13T05:48:41;14.10;;;8.93;;
21266;SDS011;10791;53.108;18.326;2023-05-13T05:53:45;16.60;;;9.23;;
21266;SDS011;10791;53.108;18.326;2023-05-13T05:58:48;13.70;;;8.90;;
21266;SDS011;10791;53.108;18.326;2023-05-13T06:03:54;10.57;;;8.17;;
21266;SDS011;10791;53.108;18.326;2023-05-13T06:08:57;13.63;;;8.03;;
21266;SDS011;10791;53.108;18.326;2023-05-13T06:14:00;9.43;;;7.27;;
21266;SDS011;10791;53.108;18.326;2023-05-13T06:19:04;16.27;;;7.40;;
21266;SDS011;10791;53.108;18.326;2023-05-13T06:24:08;10.27;;;6.47;;
21266;SDS011;10791;53.108;18.326;2023-05-13T06:29:12;10.60;;;6.82;;
21266;SDS011;10791;53.108;18.326;2023-05-13T06:34:16;8.82;;;6.63;;
21266;SDS011;10791;53.108;18.326;2023-05-13T06:39:19;8.55;;;6.53;;
21266;SDS011;10791;53.108;18.326;2023-05-13T06:44:22;9.85;;;6.53;;
21266;SDS011;10791;53.108;18.326;2023-05-13T06:49:25;10.43;;;6.47;;
21266;SDS011;10791;53.108;18.326;2023-05-13T06:54:28;11.82;;;6.47;;
21266;SDS011;10791;53.108;18.326;2023-05-13T06:59:31;10.20;;;7.90;;
21266;SDS011;10791;53.108;18.326;2023-05-13T07:04:35;15.75;;;9.82;;
21266;SDS011;10791;53.108;18.326;2023-05-13T07:09:38;12.70;;;10.13;;
21266;SDS011;10791;53.108;18.326;2023-05-13T07:14:43;16.98;;;9.90;;
21266;SDS011;10791;53.108;18.326;2023-05-13T07:19:46;11.30;;;8.63;;
21266;SDS011;10791;53.108;18.326;2023-05-13T07:24:50;9.98;;;7.15;;
21266;SDS011;10791;53.108;18.326;2023-05-13T07:29:53;8.85;;;6.85;;
21266;SDS011;10791;53.108;18.326;2023-05-13T07:34:57;7.15;;;5.90;;
21266;SDS011;10791;53.108;18.326;2023-05-13T07:40:03;9.15;;;6.07;;
21266;SDS011;10791;53.108;18.326;2023-05-13T07:45:09;15.10;;;6.40;;
21266;SDS011;10791;53.108;18.326;2023-05-13T07:50:16;9.55;;;6.22;;
21266;SDS011;10791;53.108;18.326;2023-05-13T07:55:19;9.18;;;5.63;;
21266;SDS011;10791;53.108;18.326;2023-05-13T08:00:23;10.35;;;6.82;;
21266;SDS011;10791;53.108;18.326;2023-05-13T08:05:26;10.43;;;6.40;;
21266;SDS011;10791;53.108;18.326;2023-05-13T08:10:29;8.57;;;5.80;;
21266;SDS011;10791;53.108;18.326;2023-05-13T08:15:33;11.52;;;6.55;;
21266;SDS011;10791;53.108;18.326;2023-05-13T08:20:38;11.13;;;5.55;;
21266;SDS011;10791;53.108;18.326;2023-05-13T08:25:42;13.35;;;6.07;;
21266;SDS011;10791;53.108;18.326;2023-05-13T08:30:45;9.13;;;5.13;;
21266;SDS011;10791;53.108;18.326;2023-05-13T08:35:48;8.32;;;4.93;;
21266;SDS011;10791;53.108;18.326;2023-05-13T08:40:51;8.35;;;5.05;;
21266;SDS011;10791;53.108;18.326;2023-05-13T08:45:55;8.88;;;4.82;;
21266;SDS011;10791;53.108;18.326;2023-05-13T08:51:02;6.63;;;4.65;;
21266;SDS011;10791;53.108;18.326;2023-05-13T08:56:09;7.90;;;4.38;;
21266;SDS011;10791;53.108;18.326;2023-05-13T09:01:13;7.95;;;4.22;;
21266;SDS011;10791;53.108;18.326;2023-05-13T09:06:18;7.28;;;4.10;;
21266;SDS011;10791;53.108;18.326;2023-05-13T09:11:21;12.43;;;7.82;;
21266;SDS011;10791;53.108;18.326;2023-05-13T09:16:26;10.38;;;6.85;;
21266;SDS011;10791;53.108;18.326;2023-05-13T09:21:31;4.95;;;3.20;;
21266;SDS011;10791;53.108;18.326;2023-05-13T09:26:36;6.13;;;3.38;;
21266;SDS011;10791;53.108;18.326;2023-05-13T09:31:41;6.05;;;3.55;;
21266;SDS011;10791;53.108;18.326;2023-05-13T09:36:46;6.07;;;3.58;;
21266;SDS011;10791;53.108;18.326;2023-05-13T09:41:59;5.18;;;3.08;;
21266;SDS011;10791;53.108;18.326;2023-05-13T09:47:07;9.93;;;4.00;;
21266;SDS011;10791;53.108;18.326;2023-05-13T09:52:15;4.90;;;3.33;;
21266;SDS011;10791;53.108;18.326;2023-05-13T09:57:18;5.65;;;3.03;;
21266;SDS011;10791;53.108;18.326;2023-05-13T10:02:23;8.30;;;3.65;;
21266;SDS011;10791;53.108;18.326;2023-05-13T10:07:26;4.40;;;3.03;;
21266;SDS011;10791;53.108;18.326;2023-05-13T10:12:30;8.63;;;3.03;;
21266;SDS011;10791;53.108;18.326;2023-05-13T10:17:35;4.00;;;2.78;;
21266;SDS011;10791;53.108;18.326;2023-05-13T10:22:39;5.53;;;3.33;;
21266;SDS011;10791;53.108;18.326;2023-05-13T10:27:42;3.00;;;2.70;;
21266;SDS011;10791;53.108;18.326;2023-05-13T10:32:47;7.65;;;2.92;;
21266;SDS011;10791;53.108;18.326;2023-05-13T10:38:02;5.03;;;2.83;;
21266;SDS011;10791;53.108;18.326;2023-05-13T10:43:29;8.90;;;3.22;;
21266;SDS011;10791;53.108;18.326;2023-05-13T10:48:47;3.33;;;2.60;;
21266;SDS011;10791;53.108;18.326;2023-05-13T10:53:53;6.18;;;2.33;;
21266;SDS011;10791;53.108;18.326;2023-05-13T10:58:58;5.32;;;2.70;;
21266;SDS011;10791;53.108;18.326;2023-05-13T11:04:04;8.65;;;3.20;;
21266;SDS011;10791;53.108;18.326;2023-05-13T11:14:18;3.17;;;2.28;;
21266;SDS011;10791;53.108;18.326;2023-05-13T11:19:29;3.65;;;2.38;;
21266;SDS011;10791;53.108;18.326;2023-05-13T11:24:33;8.98;;;3.00;;
21266;SDS011;10791;53.108;18.326;2023-05-13T11:29:36;4.32;;;2.50;;
21266;SDS011;10791;53.108;18.326;2023-05-13T11:34:48;4.28;;;2.38;;
21266;SDS011;10791;53.108;18.326;2023-05-13T11:39:53;4.35;;;2.10;;
21266;SDS011;10791;53.108;18.326;2023-05-13T11:44:59;3.03;;;2.30;;
21266;SDS011;10791;53.108;18.326;2023-05-13T11:50:02;3.28;;;2.22;;
21266;SDS011;10791;53.108;18.326;2023-05-13T11:55:29;6.47;;;2.53;;
21266;SDS011;10791;53.108;18.326;2023-05-13T12:00:34;5.70;;;2.47;;
21266;SDS011;10791;53.108;18.326;2023-05-13T12:05:37;7.50;;;2.72;;
21266;SDS011;10791;53.108;18.326;2023-05-13T12:10:42;6.25;;;2.85;;
21266;SDS011;10791;53.108;18.326;2023-05-13T12:15:46;8.77;;;2.50;;
21266;SDS011;10791;53.108;18.326;2023-05-13T12:20:51;2.63;;;1.98;;
21266;SDS011;10791;53.108;18.326;2023-05-13T12:25:54;3.35;;;2.15;;
21266;SDS011;10791;53.108;18.326;2023-05-13T12:31:01;3.33;;;2.47;;
21266;SDS011;10791;53.108;18.326;2023-05-13T12:36:40;4.78;;;2.83;;
21266;SDS011;10791;53.108;18.326;2023-05-13T12:41:40;5.68;;;2.78;;
21266;SDS011;10791;53.108;18.326;2023-05-13T12:46:51;5.65;;;3.40;;
21266;SDS011;10791;53.108;18.326;2023-05-13T12:51:55;2.80;;;2.13;;
21266;SDS011;10791;53.108;18.326;2023-05-13T12:56:58;4.05;;;2.75;;
21266;SDS011;10791;53.108;18.326;2023-05-13T13:02:01;6.65;;;2.75;;
21266;SDS011;10791;53.108;18.326;2023-05-13T13:07:09;4.53;;;2.15;;
21266;SDS011;10791;53.108;18.326;2023-05-13T13:12:20;3.78;;;1.90;;
21266;SDS011;10791;53.108;18.326;2023-05-13T13:17:33;3.42;;;1.77;;
21266;SDS011;10791;53.108;18.326;2023-05-13T13:22:41;4.85;;;2.08;;
21266;SDS011;10791;53.108;18.326;2023-05-13T13:27:48;4.40;;;1.77;;
21266;SDS011;10791;53.108;18.326;2023-05-13T13:32:58;3.20;;;1.88;;
21266;SDS011;10791;53.108;18.326;2023-05-13T13:38:02;7.53;;;2.15;;
21266;SDS011;10791;53.108;18.326;2023-05-13T13:43:09;2.60;;;1.80;;
21266;SDS011;10791;53.108;18.326;2023-05-13T13:48:14;4.07;;;1.67;;
21266;SDS011;10791;53.108;18.326;2023-05-13T13:53:20;2.58;;;1.85;;
21266;SDS011;10791;53.108;18.326;2023-05-13T13:58:27;10.95;;;2.50;;
21266;SDS011;10791;53.108;18.326;2023-05-13T14:03:34;3.50;;;2.22;;
21266;SDS011;10791;53.108;18.326;2023-05-13T14:08:42;3.47;;;1.90;;
21266;SDS011;10791;53.108;18.326;2023-05-13T14:13:49;2.75;;;2.15;;
21266;SDS011;10791;53.108;18.326;2023-05-13T14:18:59;3.88;;;2.28;;
21266;SDS011;10791;53.108;18.326;2023-05-13T14:24:02;15.70;;;2.85;;
21266;SDS011;10791;53.108;18.326;2023-05-13T14:29:24;6.32;;;2.13;;
21266;SDS011;10791;53.108;18.326;2023-05-13T14:34:32;3.63;;;2.00;;
21266;SDS011;10791;53.108;18.326;2023-05-13T14:39:39;3.28;;;2.17;;
21266;SDS011;10791;53.108;18.326;2023-05-13T14:44:52;7.35;;;2.08;;
21266;SDS011;10791;53.108;18.326;2023-05-13T14:49:59;7.10;;;2.05;;
21266;SDS011;10791;53.108;18.326;2023-05-13T14:55:02;3.70;;;1.73;;
21266;SDS011;10791;53.108;18.326;2023-05-13T15:00:06;4.35;;;1.73;;
21266;SDS011;10791;53.108;18.326;2023-05-13T15:05:09;5.40;;;1.70;;
21266;SDS011;10791;53.108;18.326;2023-05-13T15:10:13;4.18;;;2.20;;
21266;SDS011;10791;53.108;18.326;2023-05-13T15:15:16;3.92;;;2.00;;
21266;SDS011;10791;53.108;18.326;2023-05-13T15:20:20;3.05;;;2.30;;
21266;SDS011;10791;53.108;18.326;2023-05-13T15:25:26;4.25;;;2.92;;
21266;SDS011;10791;53.108;18.326;2023-05-13T15:30:32;4.82;;;2.20;;
21266;SDS011;10791;53.108;18.326;2023-05-13T15:35:39;3.47;;;1.85;;
21266;SDS011;10791;53.108;18.326;2023-05-13T15:40:44;3.42;;;1.90;;
21266;SDS011;10791;53.108;18.326;2023-05-13T15:45:51;6.82;;;2.40;;
21266;SDS011;10791;53.108;18.326;2023-05-13T15:50:57;8.77;;;2.58;;
21266;SDS011;10791;53.108;18.326;2023-05-13T15:56:06;6.55;;;2.03;;
21266;SDS011;10791;53.108;18.326;2023-05-13T16:01:15;2.67;;;2.08;;
21266;SDS011;10791;53.108;18.326;2023-05-13T16:06:22;6.82;;;2.63;;
21266;SDS011;10791;53.108;18.326;2023-05-13T16:11:25;4.22;;;2.30;;
21266;SDS011;10791;53.108;18.326;2023-05-13T16:16:31;5.45;;;2.33;;
21266;SDS011;10791;53.108;18.326;2023-05-13T16:21:40;8.77;;;2.67;;
21266;SDS011;10791;53.108;18.326;2023-05-13T16:26:47;4.80;;;2.60;;
21266;SDS011;10791;53.108;18.326;2023-05-13T16:31:50;3.90;;;2.50;;
21266;SDS011;10791;53.108;18.326;2023-05-13T16:36:53;3.72;;;2.15;;
21266;SDS011;10791;53.108;18.326;2023-05-13T16:41:59;7.65;;;2.78;;
21266;SDS011;10791;53.108;18.326;2023-05-13T16:47:04;8.02;;;2.50;;
21266;SDS011;10791;53.108;18.326;2023-05-13T16:52:10;5.00;;;2.58;;
21266;SDS011;10791;53.108;18.326;2023-05-13T16:57:13;5.45;;;1.95;;
21266;SDS011;10791;53.108;18.326;2023-05-13T17:02:16;9.13;;;2.60;;
21266;SDS011;10791;53.108;18.326;2023-05-13T17:07:20;6.57;;;2.47;;
21266;SDS011;10791;53.108;18.326;2023-05-13T17:12:23;5.05;;;2.45;;
21266;SDS011;10791;53.108;18.326;2023-05-13T17:17:28;8.27;;;2.47;;
21266;SDS011;10791;53.108;18.326;2023-05-13T17:22:32;17.50;;;4.68;;
21266;SDS011;10791;53.108;18.326;2023-05-13T17:27:35;5.97;;;2.53;;
21266;SDS011;10791;53.108;18.326;2023-05-13T17:32:38;4.60;;;1.90;;
21266;SDS011;10791;53.108;18.326;2023-05-13T17:37:43;4.85;;;2.03;;
21266;SDS011;10791;53.108;18.326;2023-05-13T17:42:47;8.52;;;3.50;;
21266;SDS011;10791;53.108;18.326;2023-05-13T17:47:53;6.80;;;3.90;;
21266;SDS011;10791;53.108;18.326;2023-05-13T17:52:58;6.28;;;3.17;;
21266;SDS011;10791;53.108;18.326;2023-05-13T17:58:01;9.57;;;3.83;;
21266;SDS011;10791;53.108;18.326;2023-05-13T18:03:04;15.07;;;6.75;;
21266;SDS011;10791;53.108;18.326;2023-05-13T18:08:08;26.73;;;11.35;;
21266;SDS011;10791;53.108;18.326;2023-05-13T18:13:11;53.78;;;16.45;;
21266;SDS011;10791;53.108;18.326;2023-05-13T18:18:14;25.10;;;11.45;;
21266;SDS011;10791;53.108;18.326;2023-05-13T18:23:18;7.15;;;3.78;;
21266;SDS011;10791;53.108;18.326;2023-05-13T18:28:22;3.88;;;2.55;;
21266;SDS011;10791;53.108;18.326;2023-05-13T18:33:25;6.65;;;3.15;;
21266;SDS011;10791;53.108;18.326;2023-05-13T18:38:28;12.50;;;4.13;;
21266;SDS011;10791;53.108;18.326;2023-05-13T18:43:31;7.45;;;3.55;;
21266;SDS011;10791;53.108;18.326;2023-05-13T18:48:35;10.77;;;4.93;;
21266;SDS011;10791;53.108;18.326;2023-05-13T18:53:38;12.10;;;5.20;;
21266;SDS011;10791;53.108;18.326;2023-05-13T18:58:44;15.27;;;5.47;;
21266;SDS011;10791;53.108;18.326;2023-05-13T19:03:49;8.15;;;4.93;;
21266;SDS011;10791;53.108;18.326;2023-05-13T19:08:54;11.93;;;5.38;;
21266;SDS011;10791;53.108;18.326;2023-05-13T19:14:03;9.52;;;4.80;;
21266;SDS011;10791;53.108;18.326;2023-05-13T19:19:06;10.45;;;5.13;;
21266;SDS011;10791;53.108;18.326;2023-05-13T19:24:10;8.50;;;5.38;;
21266;SDS011;10791;53.108;18.326;2023-05-13T19:29:13;12.13;;;6.30;;
21266;SDS011;10791;53.108;18.326;2023-05-13T19:34:17;19.07;;;6.63;;
21266;SDS011;10791;53.108;18.326;2023-05-13T19:39:20;14.03;;;6.90;;
21266;SDS011;10791;53.108;18.326;2023-05-13T19:44:23;13.73;;;8.27;;
21266;SDS011;10791;53.108;18.326;2023-05-13T19:49:29;17.37;;;9.17;;
21266;SDS011;10791;53.108;18.326;2023-05-13T19:54:34;15.87;;;9.60;;
21266;SDS011;10791;53.108;18.326;2023-05-13T19:59:37;20.97;;;11.37;;
21266;SDS011;10791;53.108;18.326;2023-05-13T20:04:43;16.50;;;11.40;;
21266;SDS011;10791;53.108;18.326;2023-05-13T20:09:46;15.20;;;10.33;;
21266;SDS011;10791;53.108;18.326;2023-05-13T20:14:49;17.93;;;9.97;;
21266;SDS011;10791;53.108;18.326;2023-05-13T20:19:59;16.67;;;8.90;;
21266;SDS011;10791;53.108;18.326;2023-05-13T20:25:03;16.27;;;8.20;;
21266;SDS011;10791;53.108;18.326;2023-05-13T20:30:07;13.67;;;8.23;;
21266;SDS011;10791;53.108;18.326;2023-05-13T20:35:10;16.63;;;9.10;;
21266;SDS011;10791;53.108;18.326;2023-05-13T20:40:14;15.07;;;9.93;;
21266;SDS011;10791;53.108;18.326;2023-05-13T20:45:17;15.37;;;8.87;;
21266;SDS011;10791;53.108;18.326;2023-05-13T20:50:20;18.10;;;8.60;;
21266;SDS011;10791;53.108;18.326;2023-05-13T20:55:24;16.40;;;8.33;;
21266;SDS011;10791;53.108;18.326;2023-05-13T21:00:29;31.43;;;16.23;;
21266;SDS011;10791;53.108;18.326;2023-05-13T21:05:33;20.33;;;13.23;;
21266;SDS011;10791;53.108;18.326;2023-05-13T21:10:38;24.53;;;11.00;;
21266;SDS011;10791;53.108;18.326;2023-05-13T21:15:42;15.47;;;9.47;;
21266;SDS011;10791;53.108;18.326;2023-05-13T21:20:46;22.70;;;14.87;;
21266;SDS011;10791;53.108;18.326;2023-05-13T21:25:49;27.83;;;15.97;;
21266;SDS011;10791;53.108;18.326;2023-05-13T21:30:52;41.70;;;19.90;;
21266;SDS011;10791;53.108;18.326;2023-05-13T21:35:56;29.30;;;16.57;;
21266;SDS011;10791;53.108;18.326;2023-05-13T21:40:59;20.47;;;14.40;;
21266;SDS011;10791;53.108;18.326;2023-05-13T21:46:02;21.40;;;12.13;;
21266;SDS011;10791;53.108;18.326;2023-05-13T21:51:05;20.93;;;13.63;;
21266;SDS011;10791;53.108;18.326;2023-05-13T21:56:08;26.90;;;18.03;;
21266;SDS011;10791;53.108;18.326;2023-05-13T22:01:12;26.33;;;17.43;;
21266;SDS011;10791;53.108;18.326;2023-05-13T22:06:15;22.87;;;14.73;;
21266;SDS011;10791;53.108;18.326;2023-05-13T22:11:18;23.37;;;13.20;;
21266;SDS011;10791;53.108;18.326;2023-05-13T22:16:22;23.43;;;14.23;;
21266;SDS011;10791;53.108;18.326;2023-05-13T22:21:25;22.17;;;13.63;;
21266;SDS011;10791;53.108;18.326;2023-05-13T22:26:28;25.47;;;12.40;;
21266;SDS011;10791;53.108;18.326;2023-05-13T22:31:32;21.10;;;11.77;;
21266;SDS011;10791;53.108;18.326;2023-05-13T22:36:35;16.17;;;12.33;;
21266;SDS011;10791;53.108;18.326;2023-05-13T22:41:38;19.30;;;13.67;;
21266;SDS011;10791;53.108;18.326;2023-05-13T22:46:42;26.73;;;15.20;;
21266;SDS011;10791;53.108;18.326;2023-05-13T22:51:45;23.90;;;14.43;;
21266;SDS011;10791;53.108;18.326;2023-05-13T22:56:49;22.53;;;14.20;;
21266;SDS011;10791;53.108;18.326;2023-05-13T23:01:52;25.57;;;14.30;;
21266;SDS011;10791;53.108;18.326;2023-05-13T23:06:55;23.90;;;14.03;;
21266;SDS011;10791;53.108;18.326;2023-05-13T23:11:58;20.60;;;12.43;;
21266;SDS011;10791;53.108;18.326;2023-05-13T23:17:01;21.47;;;12.40;;
21266;SDS011;10791;53.108;18.326;2023-05-13T23:22:04;18.00;;;11.70;;
21266;SDS011;10791;53.108;18.326;2023-05-13T23:27:07;17.50;;;11.93;;
21266;SDS011;10791;53.108;18.326;2023-05-13T23:32:11;19.80;;;13.40;;
21266;SDS011;10791;53.108;18.326;2023-05-13T23:37:14;21.83;;;12.37;;
21266;SDS011;10791;53.108;18.326;2023-05-13T23:42:17;19.97;;;11.43;;
21266;SDS011;10791;53.108;18.326;2023-05-13T23:47:20;22.00;;;12.30;;
21266;SDS011;10791;53.108;18.326;2023-05-13T23:52:23;22.00;;;12.53;;
21266;SDS011;10791;53.108;18.326;2023-05-13T23:57:26;22.50;;;12.23;;
